createdAt,value
2018-08-25T00:01:24.447Z,91.50
2018-08-25T00:03:52.814Z,91.30
2018-08-25T00:06:21.150Z,91.30
2018-08-25T00:08:49.494Z,91.30
2018-08-25T00:11:18.068Z,91.30
2018-08-25T00:13:46.386Z,91.50
2018-08-25T00:16:14.847Z,91.70
2018-08-25T00:18:43.221Z,91.30
2018-08-25T00:21:11.536Z,91.40
2018-08-25T00:23:39.874Z,91.60
2018-08-25T00:26:08.254Z,91.60
2018-08-25T00:28:36.604Z,92.00
2018-08-25T00:31:04.930Z,92.30
2018-08-25T00:33:33.296Z,92.50
2018-08-25T00:36:01.611Z,93.00
2018-08-25T00:38:30.057Z,93.00
2018-08-25T00:40:58.381Z,93.10
2018-08-25T00:43:26.817Z,93.60
2018-08-25T00:45:55.123Z,93.60
2018-08-25T00:48:23.461Z,93.00
2018-08-25T00:50:51.791Z,92.20
2018-08-25T00:53:20.117Z,91.80
2018-08-25T00:55:48.724Z,91.80
2018-08-25T00:58:17.011Z,91.60
2018-08-25T01:00:45.359Z,91.90
2018-08-25T01:03:13.675Z,91.40
2018-08-25T01:05:42.012Z,91.20
2018-08-25T01:08:10.332Z,91.10
2018-08-25T01:10:38.868Z,91.20
2018-08-25T01:13:07.252Z,91.20
2018-08-25T01:15:35.772Z,91.30
2018-08-25T01:18:04.059Z,91.70
2018-08-25T01:20:32.372Z,91.50
2018-08-25T01:23:00.720Z,91.40
2018-08-25T01:25:29.052Z,91.30
2018-08-25T01:27:57.630Z,91.40
2018-08-25T01:30:25.961Z,91.50
2018-08-25T01:32:55.013Z,91.20
2018-08-25T01:35:23.579Z,91.20
2018-08-25T01:37:51.904Z,91.40
2018-08-25T01:40:20.340Z,91.50
2018-08-25T01:42:48.778Z,91.50
2018-08-25T01:45:17.259Z,91.90
2018-08-25T01:47:45.676Z,91.80
2018-08-25T01:50:14.986Z,91.80
2018-08-25T01:52:43.352Z,91.80
2018-08-25T01:55:12.438Z,92.20
2018-08-25T01:57:41.662Z,92.30
2018-08-25T02:00:10.042Z,92.20
2018-08-25T02:02:38.380Z,92.40
2018-08-25T02:05:06.804Z,92.50
2018-08-25T02:07:35.265Z,92.70
2018-08-25T02:10:03.589Z,93.20
2018-08-25T02:12:32.042Z,93.30
2018-08-25T02:15:00.414Z,93.50
2018-08-25T02:17:28.742Z,93.80
2018-08-25T02:19:57.172Z,94.20
2018-08-25T02:22:25.510Z,94.00
2018-08-25T02:24:53.844Z,94.20
2018-08-25T02:27:22.186Z,94.40
2018-08-25T02:29:50.514Z,94.30
2018-08-25T02:32:18.839Z,94.50
2018-08-25T02:34:47.948Z,94.70
2018-08-25T02:37:17.049Z,94.50
2018-08-25T02:39:45.440Z,94.40
2018-08-25T02:42:13.832Z,94.50
2018-08-25T02:44:42.252Z,94.50
2018-08-25T02:47:10.574Z,94.90
2018-08-25T02:49:38.923Z,94.90
2018-08-25T02:52:08.021Z,95.20
2018-08-25T02:54:36.428Z,95.10
2018-08-25T02:57:04.750Z,94.90
2018-08-25T02:59:33.100Z,94.70
2018-08-25T03:02:01.423Z,94.80
2018-08-25T03:04:29.757Z,94.70
2018-08-25T03:06:58.114Z,94.90
2018-08-25T03:09:26.472Z,94.90
2018-08-25T03:11:54.938Z,94.90
2018-08-25T03:14:23.348Z,95.30
2018-08-25T03:16:52.446Z,95.40
2018-08-25T03:19:20.774Z,95.40
2018-08-25T03:21:49.120Z,95.50
2018-08-25T03:24:17.438Z,95.30
2018-08-25T03:26:45.816Z,95.40
2018-08-25T03:29:14.141Z,95.10
2018-08-25T03:31:42.499Z,95.10
2018-08-25T03:34:10.983Z,95.20
2018-08-25T03:36:39.311Z,95.40
2018-08-25T03:39:07.661Z,95.30
2018-08-25T03:41:36.054Z,95.40
2018-08-25T03:44:04.393Z,95.40
2018-08-25T03:46:33.520Z,95.60
2018-08-25T03:49:02.615Z,95.80
2018-08-25T03:51:30.998Z,95.80
2018-08-25T03:53:59.365Z,95.80
2018-08-25T03:56:28.458Z,96.00
2018-08-25T03:58:57.680Z,96.40
2018-08-25T04:01:26.019Z,96.30
2018-08-25T04:03:54.331Z,96.30
2018-08-25T04:06:22.674Z,96.20
2018-08-25T04:08:51.760Z,96.60
2018-08-25T04:11:20.111Z,96.70
2018-08-25T04:13:48.541Z,96.80
2018-08-25T04:16:16.901Z,96.90
2018-08-25T04:18:45.325Z,97.20
2018-08-25T04:21:13.660Z,96.80
2018-08-25T04:23:41.981Z,96.70
2018-08-25T04:26:10.303Z,96.90
2018-08-25T04:28:38.653Z,97.00
2018-08-25T04:31:06.981Z,97.00
2018-08-25T04:33:35.424Z,97.00
2018-08-25T04:36:03.643Z,97.10
2018-08-25T04:38:32.767Z,97.30
2018-08-25T04:41:01.101Z,97.30
2018-08-25T04:43:29.529Z,97.20
2018-08-25T04:45:57.881Z,97.10
2018-08-25T04:48:27.206Z,96.90
2018-08-25T04:50:55.531Z,96.90
2018-08-25T04:53:23.903Z,96.60
2018-08-25T04:55:52.254Z,96.60
2018-08-25T04:58:20.581Z,96.90
2018-08-25T05:00:48.902Z,96.80
2018-08-25T05:03:17.224Z,96.80
2018-08-25T05:05:45.643Z,96.70
2018-08-25T05:08:14.733Z,96.00
2018-08-25T05:10:43.829Z,96.20
2018-08-25T05:13:12.914Z,95.70
2018-08-25T05:15:42.021Z,95.40
2018-08-25T05:18:11.137Z,95.50
2018-08-25T05:20:39.499Z,95.40
2018-08-25T05:23:08.578Z,95.60
2018-08-25T05:25:37.835Z,95.70
2018-08-25T05:28:06.208Z,95.70
2018-08-25T05:30:34.534Z,95.80
2018-08-25T05:33:02.874Z,96.00
2018-08-25T05:35:31.834Z,95.70
2018-08-25T05:38:00.180Z,96.00
2018-08-25T05:40:28.609Z,96.20
2018-08-25T05:42:57.023Z,96.20
2018-08-25T05:45:25.347Z,96.20
2018-08-25T05:47:54.499Z,96.70
2018-08-25T05:50:22.833Z,96.60
2018-08-25T05:52:51.181Z,96.70
2018-08-25T05:55:19.549Z,96.60
2018-08-25T05:57:47.971Z,96.20
2018-08-25T06:00:16.392Z,96.30
2018-08-25T06:02:44.702Z,96.70
2018-08-25T06:05:13.049Z,96.70
2018-08-25T06:07:42.201Z,96.80
2018-08-25T06:10:10.675Z,96.60
2018-08-25T06:12:39.007Z,96.50
2018-08-25T06:15:07.471Z,96.40
2018-08-25T06:17:35.815Z,96.30
2018-08-25T06:20:04.106Z,96.20
2018-08-25T06:22:32.440Z,95.80
2018-08-25T06:25:01.570Z,96.00
2018-08-25T06:27:29.915Z,95.80
2018-08-25T06:29:58.244Z,95.30
2018-08-25T06:32:26.581Z,95.30
2018-08-25T06:34:54.919Z,95.20
2018-08-25T06:37:23.263Z,95.30
2018-08-25T06:39:51.985Z,94.40
2018-08-25T06:42:20.333Z,94.50
2018-08-25T06:44:48.673Z,94.50
2018-08-25T06:47:17.095Z,94.50
2018-08-25T06:49:45.491Z,94.40
2018-08-25T06:52:13.837Z,94.70
2018-08-25T06:54:42.933Z,94.30
2018-08-25T06:57:12.027Z,94.20
2018-08-25T06:59:41.140Z,94.50
2018-08-25T07:02:10.353Z,95.60
2018-08-25T07:04:38.675Z,95.70
2018-08-25T07:07:07.063Z,96.80
2018-08-25T07:09:35.697Z,97.10
2018-08-25T07:12:04.125Z,97.60
2018-08-25T07:14:32.462Z,98.60
2018-08-25T07:17:00.795Z,99.30
2018-08-25T07:19:29.905Z,99.90
2018-08-25T07:21:58.245Z,99.90
2018-08-25T07:24:26.575Z,99.90
2018-08-25T07:26:54.920Z,99.90
2018-08-25T07:29:23.349Z,99.90
2018-08-25T07:31:51.761Z,99.90
2018-08-25T07:34:20.197Z,99.90
2018-08-25T07:36:48.517Z,99.90
2018-08-25T07:39:17.797Z,99.90
2018-08-25T07:41:46.149Z,99.90
2018-08-25T07:44:14.482Z,99.90
2018-08-25T07:46:42.828Z,99.90
2018-08-25T07:49:11.221Z,99.90
2018-08-25T07:51:39.562Z,99.90
2018-08-25T07:54:08.655Z,99.90
2018-08-25T07:56:37.758Z,99.90
2018-08-25T07:59:06.190Z,99.90
2018-08-25T08:01:34.512Z,99.90
2018-08-25T08:04:02.848Z,99.90
2018-08-25T08:06:31.235Z,99.90
2018-08-25T08:08:59.585Z,99.90
2018-08-25T08:11:28.835Z,99.90
2018-08-25T08:13:57.976Z,99.90
2018-08-25T08:16:26.418Z,99.90
2018-08-25T08:18:55.529Z,99.90
2018-08-25T08:21:23.935Z,99.90
2018-08-25T08:23:52.292Z,99.90
2018-08-25T08:26:20.600Z,99.90
2018-08-25T08:28:49.051Z,99.90
2018-08-25T08:31:17.378Z,99.90
2018-08-25T08:33:45.889Z,99.90
2018-08-25T08:36:15.112Z,99.90
2018-08-25T08:38:43.424Z,99.90
2018-08-25T08:41:11.912Z,99.90
2018-08-25T08:43:40.244Z,99.90
2018-08-25T08:46:08.639Z,99.90
2018-08-25T08:48:36.968Z,99.90
2018-08-25T08:51:05.317Z,99.90
2018-08-25T08:53:33.661Z,99.90
2018-08-25T08:56:02.301Z,99.90
2018-08-25T08:58:30.629Z,99.90
2018-08-25T09:00:59.002Z,99.90
2018-08-25T09:03:27.459Z,99.90
2018-08-25T09:05:55.969Z,99.90
2018-08-25T09:08:24.353Z,99.90
2018-08-25T09:10:52.726Z,99.90
2018-08-25T09:13:21.071Z,99.90
2018-08-25T09:15:49.410Z,99.90
2018-08-25T09:18:17.744Z,99.90
2018-08-25T09:20:46.835Z,99.90
2018-08-25T09:23:15.973Z,99.90
2018-08-25T09:25:44.321Z,99.90
2018-08-25T09:28:13.634Z,99.90
2018-08-25T09:30:42.592Z,99.90
2018-08-25T09:33:10.923Z,99.80
2018-08-25T09:35:39.266Z,98.70
2018-08-25T09:38:08.361Z,98.70
2018-08-25T09:40:37.505Z,99.10
2018-08-25T09:43:05.818Z,99.10
2018-08-25T09:45:34.164Z,99.90
2018-08-25T09:48:02.603Z,99.90
2018-08-25T09:50:31.707Z,99.90
2018-08-25T09:53:00.076Z,99.90
2018-08-25T09:55:28.426Z,99.90
2018-08-25T09:57:56.921Z,99.90
2018-08-25T10:00:25.278Z,99.90
2018-08-25T10:02:53.624Z,99.90
2018-08-25T10:05:22.031Z,99.90
2018-08-25T10:07:51.182Z,98.80
2018-08-25T10:10:20.495Z,98.50
2018-08-25T10:12:48.836Z,98.50
2018-08-25T10:15:17.148Z,98.00
2018-08-25T10:17:45.504Z,99.00
2018-08-25T10:20:14.588Z,99.50
2018-08-25T10:22:43.008Z,99.20
2018-08-25T10:25:11.374Z,99.10
2018-08-25T10:27:39.744Z,99.80
2018-08-25T10:30:08.848Z,98.50
2018-08-25T10:32:37.202Z,98.50
2018-08-25T10:35:05.596Z,96.10
2018-08-25T10:37:35.596Z,92.50
2018-08-25T10:40:04.140Z,92.50
2018-08-25T10:42:32.454Z,91.90
2018-08-25T10:45:00.812Z,90.70
2018-08-25T10:47:29.254Z,91.90
2018-08-25T10:49:57.624Z,92.00
2018-08-25T10:52:25.987Z,88.70
2018-08-25T10:54:55.076Z,89.90
2018-08-25T10:57:23.485Z,89.30
2018-08-25T10:59:51.857Z,90.60
2018-08-25T11:02:20.964Z,91.70
2018-08-25T11:04:49.365Z,91.70
2018-08-25T11:07:17.805Z,92.40
2018-08-25T11:09:47.766Z,93.00
2018-08-25T11:12:16.199Z,93.00
2018-08-25T11:14:45.312Z,93.40
2018-08-25T11:17:13.689Z,93.40
2018-08-25T11:19:42.008Z,92.80
2018-08-25T11:22:10.535Z,93.20
2018-08-25T11:24:38.928Z,93.30
2018-08-25T11:27:07.259Z,93.40
2018-08-25T11:29:35.707Z,94.90
2018-08-25T11:32:04.090Z,95.60
2018-08-25T11:34:32.451Z,96.70
2018-08-25T11:37:00.876Z,98.10
2018-08-25T11:39:29.214Z,98.20
2018-08-25T11:41:57.530Z,99.20
2018-08-25T11:44:25.889Z,99.90
2018-08-25T11:46:54.589Z,99.90
2018-08-25T11:49:22.925Z,99.60
2018-08-25T11:51:51.276Z,99.50
2018-08-25T11:54:19.672Z,99.90
2018-08-25T11:56:48.086Z,99.90
2018-08-25T11:59:16.398Z,99.90
2018-08-25T12:01:44.737Z,99.90
2018-08-25T12:04:13.445Z,99.90
2018-08-25T12:06:41.794Z,99.90
2018-08-25T12:09:10.123Z,99.90
2018-08-25T12:11:38.454Z,99.90
2018-08-25T12:14:06.888Z,99.90
2018-08-25T12:16:35.234Z,99.40
2018-08-25T12:19:03.608Z,99.10
2018-08-25T12:21:31.930Z,99.40
2018-08-25T12:24:00.431Z,99.20
2018-08-25T12:26:28.726Z,98.30
2018-08-25T12:28:57.152Z,97.00
2018-08-25T12:31:25.463Z,95.20
2018-08-25T12:33:54.657Z,93.60
2018-08-25T12:36:23.794Z,94.20
2018-08-25T12:38:52.137Z,94.10
2018-08-25T12:41:21.235Z,96.80
2018-08-25T12:43:50.340Z,98.20
2018-08-25T12:46:18.683Z,98.20
2018-08-25T12:48:47.373Z,99.00
2018-08-25T12:51:15.781Z,98.80
2018-08-25T12:53:44.895Z,95.90
2018-08-25T12:56:13.248Z,95.90
2018-08-25T12:58:41.615Z,95.10
2018-08-25T13:01:10.757Z,95.60
2018-08-25T13:03:39.097Z,96.10
2018-08-25T13:06:07.417Z,96.60
2018-08-25T13:08:35.790Z,96.60
2018-08-25T13:11:04.118Z,96.50
2018-08-25T13:13:32.528Z,96.80
2018-08-25T13:16:00.899Z,97.10
2018-08-25T13:18:29.400Z,93.90
2018-08-25T13:20:58.538Z,90.00
2018-08-25T13:23:26.926Z,89.90
2018-08-25T13:25:55.189Z,84.90
2018-08-25T13:28:23.637Z,87.00
2018-08-25T13:30:52.118Z,88.50
2018-08-25T13:33:20.389Z,88.40
2018-08-25T13:35:48.777Z,86.80
2018-08-25T13:38:17.195Z,87.70
2018-08-25T13:40:45.542Z,88.30
2018-08-25T13:43:14.839Z,89.10
2018-08-25T13:45:43.176Z,89.10
2018-08-25T13:48:11.528Z,89.70
2018-08-25T13:50:39.890Z,87.70
2018-08-25T13:53:08.242Z,85.10
2018-08-25T13:55:36.586Z,82.90
2018-08-25T13:58:04.932Z,83.40
2018-08-25T14:00:33.272Z,84.90
2018-08-25T14:03:02.463Z,85.70
2018-08-25T14:05:31.555Z,87.90
2018-08-25T14:07:59.947Z,88.50
2018-08-25T14:10:29.032Z,86.90
2018-08-25T14:12:58.144Z,89.40
2018-08-25T14:15:26.592Z,88.70
2018-08-25T14:17:55.853Z,88.40
2018-08-25T14:20:24.422Z,89.70
2018-08-25T14:22:52.813Z,90.30
2018-08-25T14:25:21.163Z,89.60
2018-08-25T14:27:50.254Z,86.70
2018-08-25T14:30:19.376Z,85.20
2018-08-25T14:32:47.710Z,85.20
2018-08-25T14:35:16.092Z,85.60
2018-08-25T14:37:44.424Z,85.40
2018-08-25T14:40:12.779Z,85.70
2018-08-25T14:42:41.886Z,82.40
2018-08-25T14:45:10.279Z,82.30
2018-08-25T14:47:38.627Z,81.30
2018-08-25T14:50:06.943Z,82.20
2018-08-25T14:52:35.396Z,82.30
2018-08-25T14:55:03.788Z,84.00
2018-08-25T14:57:33.066Z,84.90
2018-08-25T15:00:01.450Z,84.90
2018-08-25T15:02:29.789Z,85.00
2018-08-25T15:04:58.138Z,86.30
2018-08-25T15:07:26.508Z,85.50
2018-08-25T15:09:55.433Z,86.20
2018-08-25T15:12:23.762Z,86.80
2018-08-25T15:14:52.138Z,87.50
2018-08-25T15:17:21.227Z,88.30
2018-08-25T15:19:50.356Z,89.40
2018-08-25T15:22:18.670Z,89.40
2018-08-25T15:24:47.336Z,90.40
2018-08-25T15:27:15.699Z,91.80
2018-08-25T15:29:44.806Z,93.00
2018-08-25T15:32:13.357Z,93.00
2018-08-25T15:34:41.744Z,92.70
2018-08-25T15:37:10.088Z,93.20
2018-08-25T15:39:39.275Z,93.50
2018-08-25T15:42:07.594Z,93.50
2018-08-25T15:44:35.928Z,93.30
2018-08-25T15:47:04.353Z,92.70
2018-08-25T15:49:32.708Z,92.90
2018-08-25T15:52:01.840Z,90.40
2018-08-25T15:54:30.916Z,88.80
2018-08-25T15:57:00.034Z,87.20
2018-08-25T15:59:28.415Z,87.20
2018-08-25T16:01:56.769Z,87.60
2018-08-25T16:04:26.608Z,88.10
2018-08-25T16:06:54.976Z,88.10
2018-08-25T16:09:23.321Z,86.50
2018-08-25T16:11:52.528Z,84.40
2018-08-25T16:14:20.834Z,84.40
2018-08-25T16:16:49.176Z,84.90
2018-08-25T16:19:19.119Z,88.00
2018-08-25T16:21:47.389Z,88.00
2018-08-25T16:24:15.975Z,89.70
2018-08-25T16:26:44.484Z,90.10
2018-08-25T16:29:12.809Z,90.70
2018-08-25T16:31:41.153Z,91.30
2018-08-25T16:34:09.490Z,92.20
2018-08-25T16:36:37.858Z,92.70
2018-08-25T16:39:07.004Z,93.30
2018-08-25T16:41:35.319Z,93.30
2018-08-25T16:44:03.677Z,92.80
2018-08-25T16:46:32.032Z,92.60
2018-08-25T16:49:00.383Z,92.60
2018-08-25T16:51:29.496Z,91.40
2018-08-25T16:53:58.202Z,91.40
2018-08-25T16:56:26.514Z,91.10
2018-08-25T16:58:54.869Z,90.20
2018-08-25T17:01:23.215Z,88.80
2018-08-25T17:03:51.599Z,87.50
2018-08-25T17:06:19.923Z,86.30
2018-08-25T17:08:48.283Z,85.90
2018-08-25T17:11:16.652Z,85.30
2018-08-25T17:13:44.969Z,85.10
2018-08-25T17:16:13.418Z,84.70
2018-08-25T17:18:42.394Z,84.80
2018-08-25T17:21:10.846Z,86.40
2018-08-25T17:26:13.970Z,89.00
2018-08-25T17:28:42.385Z,89.70
2018-08-25T17:31:10.720Z,90.10
2018-08-25T17:33:39.080Z,91.10
2018-08-25T17:36:07.467Z,92.00
2018-08-25T17:38:36.861Z,92.80
2018-08-25T17:41:05.194Z,93.30
2018-08-25T17:43:33.535Z,93.80
2018-08-25T17:46:03.226Z,94.70
2018-08-25T17:48:31.625Z,94.70
2018-08-25T17:51:00.772Z,96.20
2018-08-25T17:53:29.111Z,96.20
2018-08-25T17:55:57.554Z,96.10
2018-08-25T17:58:25.901Z,96.40
2018-08-25T18:00:54.277Z,96.80
2018-08-25T18:03:23.703Z,97.10
2018-08-25T18:05:52.326Z,97.40
2018-08-25T18:08:20.655Z,97.80
2018-08-25T18:10:49.028Z,98.20
2018-08-25T18:13:17.369Z,98.80
2018-08-25T18:15:45.742Z,99.50
2018-08-25T18:18:15.033Z,99.90
2018-08-25T18:20:44.138Z,99.90
2018-08-25T18:23:13.279Z,99.90
2018-08-25T18:25:41.629Z,99.90
2018-08-25T18:28:09.989Z,99.90
2018-08-25T18:30:39.168Z,99.90
2018-08-25T18:33:08.651Z,99.90
2018-08-25T18:35:37.057Z,99.90
2018-08-25T18:38:05.423Z,99.90
2018-08-25T18:40:33.781Z,99.90
2018-08-25T18:43:02.142Z,99.90
2018-08-25T18:45:30.611Z,99.90
2018-08-25T18:47:59.736Z,99.90
2018-08-25T18:50:28.147Z,99.90
2018-08-25T18:52:56.604Z,99.90
2018-08-25T18:55:24.981Z,99.90
2018-08-25T18:57:54.181Z,99.90
2018-08-25T19:00:22.535Z,99.90
2018-08-25T19:02:50.857Z,99.90
2018-08-25T19:05:19.200Z,99.90
2018-08-25T19:07:47.550Z,99.90
2018-08-25T19:10:16.564Z,99.90
2018-08-25T19:12:44.928Z,99.90
2018-08-25T19:15:13.339Z,99.90
2018-08-25T19:17:41.764Z,99.90
2018-08-25T19:20:10.334Z,99.90
2018-08-25T19:22:38.680Z,99.90
2018-08-25T19:25:07.065Z,99.90
2018-08-25T19:27:35.441Z,99.90
2018-08-25T19:30:03.993Z,99.90
2018-08-25T19:32:32.335Z,99.90
2018-08-25T19:35:00.693Z,99.90
2018-08-25T19:37:29.014Z,99.90
2018-08-25T19:39:58.228Z,99.90
2018-08-25T19:42:27.358Z,99.90
2018-08-25T19:44:55.697Z,99.90
2018-08-25T19:47:24.285Z,99.90
2018-08-25T19:49:53.554Z,99.90
2018-08-25T19:52:22.002Z,99.90
2018-08-25T19:54:50.402Z,99.90
2018-08-25T19:57:18.830Z,99.90
2018-08-25T19:59:47.272Z,99.90
2018-08-25T20:02:15.780Z,99.90
2018-08-25T20:04:46.573Z,99.90
2018-08-25T20:07:14.964Z,99.90
2018-08-25T20:09:44.592Z,99.90
2018-08-25T20:12:13.101Z,99.90
2018-08-25T20:14:41.649Z,99.90
2018-08-25T20:17:10.332Z,99.90
2018-08-25T20:19:38.720Z,99.90
2018-08-25T20:22:07.094Z,99.90
2018-08-25T20:24:35.600Z,99.90
2018-08-25T20:27:04.779Z,99.90
2018-08-25T20:29:33.270Z,99.90
2018-08-25T20:32:01.665Z,99.90
2018-08-25T20:34:30.838Z,99.90
2018-08-25T20:36:59.410Z,99.90
2018-08-25T20:39:28.069Z,99.90
2018-08-25T20:41:56.449Z,99.90
2018-08-25T20:44:24.857Z,99.90
2018-08-25T20:46:53.469Z,99.90
2018-08-25T20:49:22.636Z,99.90
2018-08-25T20:51:51.021Z,99.90
2018-08-25T20:54:19.441Z,99.90
2018-08-25T20:56:47.869Z,99.90
2018-08-25T20:59:16.235Z,99.90
2018-08-25T21:01:44.887Z,99.90
2018-08-25T21:04:13.310Z,99.90
2018-08-25T21:06:41.681Z,99.90
2018-08-25T21:09:11.050Z,99.90
2018-08-25T21:11:40.169Z,99.90
2018-08-25T21:14:09.563Z,99.90
2018-08-25T21:16:37.907Z,99.90
2018-08-25T21:19:07.039Z,99.90
2018-08-25T21:21:35.433Z,99.90
2018-08-25T21:24:03.954Z,99.90
2018-08-25T21:26:32.373Z,99.90
2018-08-25T21:29:00.713Z,99.90
2018-08-25T21:31:29.059Z,99.90
2018-08-25T21:33:57.517Z,99.90
2018-08-25T21:36:25.847Z,99.90
2018-08-25T21:38:54.232Z,99.90
2018-08-25T21:41:22.668Z,99.90
2018-08-25T21:46:25.744Z,99.90
2018-08-25T21:48:54.111Z,99.90
2018-08-25T21:51:23.340Z,99.90
2018-08-25T21:53:51.675Z,99.90
2018-08-25T21:56:20.032Z,99.90
2018-08-25T21:58:48.490Z,99.90
2018-08-25T22:01:16.869Z,99.90
2018-08-25T22:03:45.361Z,99.90
2018-08-25T22:06:13.739Z,99.90
2018-08-25T22:08:42.114Z,99.90
2018-08-25T22:11:10.539Z,99.90
2018-08-25T22:13:38.854Z,99.90
2018-08-25T22:16:07.190Z,99.90
2018-08-25T22:18:35.581Z,99.90
2018-08-25T22:21:04.808Z,99.90
2018-08-25T22:23:33.141Z,99.90
2018-08-25T22:26:01.489Z,99.90
2018-08-25T22:28:29.997Z,99.90
2018-08-25T22:30:58.367Z,99.90
2018-08-25T22:33:26.767Z,99.90
2018-08-25T22:35:55.119Z,99.90
2018-08-25T22:38:23.445Z,99.90
2018-08-25T22:40:52.611Z,99.90
2018-08-25T22:43:21.062Z,99.90
2018-08-25T22:45:49.549Z,99.90
2018-08-25T22:48:17.931Z,99.90
2018-08-25T22:50:46.281Z,99.90
2018-08-25T22:53:14.649Z,99.90
2018-08-25T22:55:43.759Z,99.90
2018-08-25T22:58:12.163Z,99.90
2018-08-25T23:00:40.714Z,99.90
2018-08-25T23:03:09.086Z,99.90
2018-08-25T23:05:38.330Z,99.90
2018-08-25T23:08:06.846Z,99.90
2018-08-25T23:10:35.211Z,99.90
2018-08-25T23:13:03.551Z,99.90
2018-08-25T23:15:31.911Z,99.90
2018-08-25T23:18:00.421Z,99.90
2018-08-25T23:20:28.792Z,99.90
2018-08-25T23:22:57.154Z,99.90
2018-08-25T23:25:25.735Z,99.90
2018-08-25T23:27:54.075Z,99.90
2018-08-25T23:30:22.437Z,99.90
2018-08-25T23:32:50.793Z,99.90
2018-08-25T23:35:19.324Z,99.90
2018-08-25T23:37:47.642Z,99.90
2018-08-25T23:40:16.013Z,99.90
2018-08-25T23:42:44.387Z,99.90
2018-08-25T23:45:12.741Z,99.90
2018-08-25T23:47:41.109Z,99.90
2018-08-25T23:50:09.791Z,99.90
2018-08-25T23:52:38.234Z,99.90
2018-08-25T23:55:06.578Z,99.90
2018-08-25T23:57:35.751Z,99.90
